sensor_id;sensor_type;location;lat;lon;timestamp;P1;P2;P0
36453;PMS5003;22478;51.740;-1.314;2023-05-07T00:00:44;48;48;
36453;PMS5003;22478;51.740;-1.314;2023-05-07T00:03:11;34;31;
36453;PMS5003;22478;51.740;-1.314;2023-05-07T00:05:38;40;38;
36453;PMS5003;22478;51.740;-1.314;2023-05-07T00:08:06;29;28;
36453;PMS5003;22478;51.740;-1.314;2023-05-07T00:10:33;34;31;
36453;PMS5003;22478;51.740;-1.314;2023-05-07T00:13:00;30;28;
36453;PMS5003;22478;51.740;-1.314;2023-05-07T00:15:27;31;28;
36453;PMS5003;22478;51.740;-1.314;2023-05-07T00:17:55;37;34;
36453;PMS5003;22478;51.740;-1.314;2023-05-07T00:20:22;32;30;
36453;PMS5003;22478;51.740;-1.314;2023-05-07T00:22:50;25;25;
36453;PMS5003;22478;51.740;-1.314;2023-05-07T00:25:18;32;31;
36453;PMS5003;22478;51.740;-1.314;2023-05-07T00:27:46;30;29;
36453;PMS5003;22478;51.740;-1.314;2023-05-07T00:30:13;26;25;
36453;PMS5003;22478;51.740;-1.314;2023-05-07T00:32:41;31;31;
36453;PMS5003;22478;51.740;-1.314;2023-05-07T00:35:09;37;37;
36453;PMS5003;22478;51.740;-1.314;2023-05-07T00:37:36;32;30;
36453;PMS5003;22478;51.740;-1.314;2023-05-07T00:40:04;46;45;
36453;PMS5003;22478;51.740;-1.314;2023-05-07T00:42:32;47;43;
36453;PMS5003;22478;51.740;-1.314;2023-05-07T00:44:59;33;33;
36453;PMS5003;22478;51.740;-1.314;2023-05-07T00:47:26;29;28;
36453;PMS5003;22478;51.740;-1.314;2023-05-07T00:49:53;27;26;
36453;PMS5003;22478;51.740;-1.314;2023-05-07T00:52:21;37;31;
36453;PMS5003;22478;51.740;-1.314;2023-05-07T00:54:51;45;39;
36453;PMS5003;22478;51.740;-1.314;2023-05-07T00:57:19;38;38;
36453;PMS5003;22478;51.740;-1.314;2023-05-07T00:59:48;57;50;
36453;PMS5003;22478;51.740;-1.314;2023-05-07T01:02:17;44;40;
36453;PMS5003;22478;51.740;-1.314;2023-05-07T01:04:44;60;54;
36453;PMS5003;22478;51.740;-1.314;2023-05-07T01:07:11;45;42;
36453;PMS5003;22478;51.740;-1.314;2023-05-07T01:09:39;44;41;
36453;PMS5003;22478;51.740;-1.314;2023-05-07T01:12:07;46;43;
36453;PMS5003;22478;51.740;-1.314;2023-05-07T01:14:35;42;41;
36453;PMS5003;22478;51.740;-1.314;2023-05-07T01:17:02;40;32;
36453;PMS5003;22478;51.740;-1.314;2023-05-07T01:19:29;36;34;
36453;PMS5003;22478;51.740;-1.314;2023-05-07T01:22:08;43;40;
36453;PMS5003;22478;51.740;-1.314;2023-05-07T01:24:36;46;44;
36453;PMS5003;22478;51.740;-1.314;2023-05-07T01:27:04;43;43;
36453;PMS5003;22478;51.740;-1.314;2023-05-07T01:29:31;48;45;
36453;PMS5003;22478;51.740;-1.314;2023-05-07T01:31:59;46;44;
36453;PMS5003;22478;51.740;-1.314;2023-05-07T01:34:28;44;40;
36453;PMS5003;22478;51.740;-1.314;2023-05-07T01:36:58;43;40;
36453;PMS5003;22478;51.740;-1.314;2023-05-07T01:39:27;58;55;
36453;PMS5003;22478;51.740;-1.314;2023-05-07T01:41:55;40;39;
36453;PMS5003;22478;51.740;-1.314;2023-05-07T01:44:23;35;32;
36453;PMS5003;22478;51.740;-1.314;2023-05-07T01:46:51;51;46;
36453;PMS5003;22478;51.740;-1.314;2023-05-07T01:49:19;39;38;
36453;PMS5003;22478;51.740;-1.314;2023-05-07T01:51:46;49;43;
36453;PMS5003;22478;51.740;-1.314;2023-05-07T01:54:13;47;43;
36453;PMS5003;22478;51.740;-1.314;2023-05-07T01:56:41;44;43;
36453;PMS5003;22478;51.740;-1.314;2023-05-07T01:59:08;44;44;
36453;PMS5003;22478;51.740;-1.314;2023-05-07T02:01:35;44;42;
36453;PMS5003;22478;51.740;-1.314;2023-05-07T02:04:03;35;33;
36453;PMS5003;22478;51.740;-1.314;2023-05-07T02:06:30;44;41;
36453;PMS5003;22478;51.740;-1.314;2023-05-07T02:08:58;38;33;
36453;PMS5003;22478;51.740;-1.314;2023-05-07T02:11:25;29;27;
36453;PMS5003;22478;51.740;-1.314;2023-05-07T02:13:53;36;33;
36453;PMS5003;22478;51.740;-1.314;2023-05-07T02:16:20;35;33;
36453;PMS5003;22478;51.740;-1.314;2023-05-07T02:18:48;48;46;
36453;PMS5003;22478;51.740;-1.314;2023-05-07T02:21:15;39;37;
36453;PMS5003;22478;51.740;-1.314;2023-05-07T02:23:42;46;42;
36453;PMS5003;22478;51.740;-1.314;2023-05-07T02:26:10;51;47;
36453;PMS5003;22478;51.740;-1.314;2023-05-07T02:28:37;42;42;
36453;PMS5003;22478;51.740;-1.314;2023-05-07T02:31:04;42;38;
36453;PMS5003;22478;51.740;-1.314;2023-05-07T02:33:32;47;40;
36453;PMS5003;22478;51.740;-1.314;2023-05-07T02:36:05;46;44;
36453;PMS5003;22478;51.740;-1.314;2023-05-07T02:38:32;32;29;
36453;PMS5003;22478;51.740;-1.314;2023-05-07T02:40:59;46;40;
36453;PMS5003;22478;51.740;-1.314;2023-05-07T02:43:27;29;27;
36453;PMS5003;22478;51.740;-1.314;2023-05-07T02:46:02;36;33;
36453;PMS5003;22478;51.740;-1.314;2023-05-07T02:48:31;32;31;
36453;PMS5003;22478;51.740;-1.314;2023-05-07T02:50:58;37;36;
36453;PMS5003;22478;51.740;-1.314;2023-05-07T02:53:27;36;34;
36453;PMS5003;22478;51.740;-1.314;2023-05-07T02:55:55;34;29;
36453;PMS5003;22478;51.740;-1.314;2023-05-07T02:58:23;32;29;
36453;PMS5003;22478;51.740;-1.314;2023-05-07T03:00:51;40;37;
36453;PMS5003;22478;51.740;-1.314;2023-05-07T03:03:19;32;29;
36453;PMS5003;22478;51.740;-1.314;2023-05-07T03:05:46;36;33;
36453;PMS5003;22478;51.740;-1.314;2023-05-07T03:08:13;43;39;
36453;PMS5003;22478;51.740;-1.314;2023-05-07T03:10:40;42;41;
36453;PMS5003;22478;51.740;-1.314;2023-05-07T03:13:08;51;46;
36453;PMS5003;22478;51.740;-1.314;2023-05-07T03:15:35;53;53;
36453;PMS5003;22478;51.740;-1.314;2023-05-07T03:18:02;41;39;
36453;PMS5003;22478;51.740;-1.314;2023-05-07T03:20:29;41;36;
36453;PMS5003;22478;51.740;-1.314;2023-05-07T03:22:57;44;38;
36453;PMS5003;22478;51.740;-1.314;2023-05-07T03:25:24;41;38;
36453;PMS5003;22478;51.740;-1.314;2023-05-07T03:27:51;40;39;
36453;PMS5003;22478;51.740;-1.314;2023-05-07T03:30:17;43;38;
36453;PMS5003;22478;51.740;-1.314;2023-05-07T03:32:45;37;33;
36453;PMS5003;22478;51.740;-1.314;2023-05-07T03:35:12;42;35;
36453;PMS5003;22478;51.740;-1.314;2023-05-07T03:37:39;42;40;
36453;PMS5003;22478;51.740;-1.314;2023-05-07T03:40:07;44;39;
36453;PMS5003;22478;51.740;-1.314;2023-05-07T03:42:34;48;41;
36453;PMS5003;22478;51.740;-1.314;2023-05-07T03:45:02;54;49;
36453;PMS5003;22478;51.740;-1.314;2023-05-07T03:47:29;47;41;
36453;PMS5003;22478;51.740;-1.314;2023-05-07T03:49:56;46;42;
36453;PMS5003;22478;51.740;-1.314;2023-05-07T03:52:23;44;36;
36453;PMS5003;22478;51.740;-1.314;2023-05-07T03:54:51;55;51;
36453;PMS5003;22478;51.740;-1.314;2023-05-07T03:57:18;46;45;
36453;PMS5003;22478;51.740;-1.314;2023-05-07T03:59:46;56;50;
36453;PMS5003;22478;51.740;-1.314;2023-05-07T04:02:14;54;47;
36453;PMS5003;22478;51.740;-1.314;2023-05-07T04:04:41;63;56;
36453;PMS5003;22478;51.740;-1.314;2023-05-07T04:07:08;60;53;
36453;PMS5003;22478;51.740;-1.314;2023-05-07T04:09:36;61;54;
36453;PMS5003;22478;51.740;-1.314;2023-05-07T04:12:03;58;57;
36453;PMS5003;22478;51.740;-1.314;2023-05-07T04:14:31;41;38;
36453;PMS5003;22478;51.740;-1.314;2023-05-07T04:16:58;39;36;
36453;PMS5003;22478;51.740;-1.314;2023-05-07T04:19:25;47;42;
36453;PMS5003;22478;51.740;-1.314;2023-05-07T04:21:52;44;38;
36453;PMS5003;22478;51.740;-1.314;2023-05-07T04:24:20;47;46;
36453;PMS5003;22478;51.740;-1.314;2023-05-07T04:26:48;36;36;
36453;PMS5003;22478;51.740;-1.314;2023-05-07T04:29:15;44;42;
36453;PMS5003;22478;51.740;-1.314;2023-05-07T04:31:42;48;40;
36453;PMS5003;22478;51.740;-1.314;2023-05-07T04:34:09;47;42;
36453;PMS5003;22478;51.740;-1.314;2023-05-07T04:36:37;41;38;
36453;PMS5003;22478;51.740;-1.314;2023-05-07T04:39:05;41;36;
36453;PMS5003;22478;51.740;-1.314;2023-05-07T04:41:32;38;34;
36453;PMS5003;22478;51.740;-1.314;2023-05-07T04:43:59;36;34;
36453;PMS5003;22478;51.740;-1.314;2023-05-07T04:46:27;42;35;
36453;PMS5003;22478;51.740;-1.314;2023-05-07T04:48:54;32;30;
36453;PMS5003;22478;51.740;-1.314;2023-05-07T04:51:21;41;31;
36453;PMS5003;22478;51.740;-1.314;2023-05-07T04:53:49;39;32;
36453;PMS5003;22478;51.740;-1.314;2023-05-07T04:56:16;40;34;
36453;PMS5003;22478;51.740;-1.314;2023-05-07T04:58:43;37;36;
36453;PMS5003;22478;51.740;-1.314;2023-05-07T05:01:10;38;32;
36453;PMS5003;22478;51.740;-1.314;2023-05-07T05:03:37;31;27;
36453;PMS5003;22478;51.740;-1.314;2023-05-07T05:06:04;34;30;
36453;PMS5003;22478;51.740;-1.314;2023-05-07T05:08:32;37;30;
36453;PMS5003;22478;51.740;-1.314;2023-05-07T05:11:00;34;29;
36453;PMS5003;22478;51.740;-1.314;2023-05-07T05:13:28;34;33;
36453;PMS5003;22478;51.740;-1.314;2023-05-07T05:15:55;33;30;
36453;PMS5003;22478;51.740;-1.314;2023-05-07T05:18:22;31;28;
36453;PMS5003;22478;51.740;-1.314;2023-05-07T05:20:51;36;32;
36453;PMS5003;22478;51.740;-1.314;2023-05-07T05:23:18;34;33;
36453;PMS5003;22478;51.740;-1.314;2023-05-07T05:25:45;29;28;
36453;PMS5003;22478;51.740;-1.314;2023-05-07T05:28:13;29;25;
36453;PMS5003;22478;51.740;-1.314;2023-05-07T05:30:40;39;33;
36453;PMS5003;22478;51.740;-1.314;2023-05-07T05:33:07;34;30;
36453;PMS5003;22478;51.740;-1.314;2023-05-07T05:35:34;36;31;
36453;PMS5003;22478;51.740;-1.314;2023-05-07T05:38:02;36;30;
36453;PMS5003;22478;51.740;-1.314;2023-05-07T05:40:29;36;29;
36453;PMS5003;22478;51.740;-1.314;2023-05-07T05:42:56;34;30;
36453;PMS5003;22478;51.740;-1.314;2023-05-07T05:45:23;33;31;
36453;PMS5003;22478;51.740;-1.314;2023-05-07T05:47:51;27;25;
36453;PMS5003;22478;51.740;-1.314;2023-05-07T05:50:19;40;36;
36453;PMS5003;22478;51.740;-1.314;2023-05-07T05:52:46;31;29;
36453;PMS5003;22478;51.740;-1.314;2023-05-07T05:55:13;39;36;
36453;PMS5003;22478;51.740;-1.314;2023-05-07T05:57:40;33;30;
36453;PMS5003;22478;51.740;-1.314;2023-05-07T06:00:08;32;29;
36453;PMS5003;22478;51.740;-1.314;2023-05-07T06:02:36;31;29;
36453;PMS5003;22478;51.740;-1.314;2023-05-07T06:05:04;22;19;
36453;PMS5003;22478;51.740;-1.314;2023-05-07T06:07:31;33;29;
36453;PMS5003;22478;51.740;-1.314;2023-05-07T06:09:58;27;25;
36453;PMS5003;22478;51.740;-1.314;2023-05-07T06:12:26;38;37;
36453;PMS5003;22478;51.740;-1.314;2023-05-07T06:14:54;33;30;
36453;PMS5003;22478;51.740;-1.314;2023-05-07T06:17:21;30;25;
36453;PMS5003;22478;51.740;-1.314;2023-05-07T06:19:48;24;18;
36453;PMS5003;22478;51.740;-1.314;2023-05-07T06:22:16;28;23;
36453;PMS5003;22478;51.740;-1.314;2023-05-07T06:24:43;24;21;
36453;PMS5003;22478;51.740;-1.314;2023-05-07T06:27:11;20;19;
36453;PMS5003;22478;51.740;-1.314;2023-05-07T06:29:38;25;20;
36453;PMS5003;22478;51.740;-1.314;2023-05-07T06:32:06;24;20;
36453;PMS5003;22478;51.740;-1.314;2023-05-07T06:34:34;21;18;
36453;PMS5003;22478;51.740;-1.314;2023-05-07T06:37:02;27;23;
36453;PMS5003;22478;51.740;-1.314;2023-05-07T06:39:29;23;20;
36453;PMS5003;22478;51.740;-1.314;2023-05-07T06:41:57;21;21;
36453;PMS5003;22478;51.740;-1.314;2023-05-07T06:44:25;31;28;
36453;PMS5003;22478;51.740;-1.314;2023-05-07T06:46:52;21;19;
36453;PMS5003;22478;51.740;-1.314;2023-05-07T06:49:19;25;24;
36453;PMS5003;22478;51.740;-1.314;2023-05-07T06:51:46;22;20;
36453;PMS5003;22478;51.740;-1.314;2023-05-07T06:54:14;24;21;
36453;PMS5003;22478;51.740;-1.314;2023-05-07T06:56:41;26;24;
36453;PMS5003;22478;51.740;-1.314;2023-05-07T06:59:09;36;29;
36453;PMS5003;22478;51.740;-1.314;2023-05-07T07:01:36;33;31;
36453;PMS5003;22478;51.740;-1.314;2023-05-07T07:04:03;28;26;
36453;PMS5003;22478;51.740;-1.314;2023-05-07T07:06:31;28;25;
36453;PMS5003;22478;51.740;-1.314;2023-05-07T07:08:58;26;24;
36453;PMS5003;22478;51.740;-1.314;2023-05-07T07:11:26;29;29;
36453;PMS5003;22478;51.740;-1.314;2023-05-07T07:13:53;29;28;
36453;PMS5003;22478;51.740;-1.314;2023-05-07T07:16:20;31;29;
36453;PMS5003;22478;51.740;-1.314;2023-05-07T07:18:48;32;28;
36453;PMS5003;22478;51.740;-1.314;2023-05-07T07:21:14;24;24;
36453;PMS5003;22478;51.740;-1.314;2023-05-07T07:23:42;28;27;
36453;PMS5003;22478;51.740;-1.314;2023-05-07T07:26:09;31;25;
36453;PMS5003;22478;51.740;-1.314;2023-05-07T07:28:41;33;31;
36453;PMS5003;22478;51.740;-1.314;2023-05-07T07:31:09;27;23;
36453;PMS5003;22478;51.740;-1.314;2023-05-07T07:33:36;28;25;
36453;PMS5003;22478;51.740;-1.314;2023-05-07T07:36:04;22;18;
36453;PMS5003;22478;51.740;-1.314;2023-05-07T07:38:32;21;19;
36453;PMS5003;22478;51.740;-1.314;2023-05-07T07:41:00;26;24;
36453;PMS5003;22478;51.740;-1.314;2023-05-07T07:43:27;21;20;
36453;PMS5003;22478;51.740;-1.314;2023-05-07T07:45:55;20;18;
36453;PMS5003;22478;51.740;-1.314;2023-05-07T07:48:22;24;23;
36453;PMS5003;22478;51.740;-1.314;2023-05-07T07:50:50;25;22;
36453;PMS5003;22478;51.740;-1.314;2023-05-07T07:53:18;23;21;
36453;PMS5003;22478;51.740;-1.314;2023-05-07T07:55:45;24;22;
36453;PMS5003;22478;51.740;-1.314;2023-05-07T07:58:12;20;20;
36453;PMS5003;22478;51.740;-1.314;2023-05-07T08:00:40;29;26;
36453;PMS5003;22478;51.740;-1.314;2023-05-07T08:03:09;32;29;
36453;PMS5003;22478;51.740;-1.314;2023-05-07T08:05:36;30;30;
36453;PMS5003;22478;51.740;-1.314;2023-05-07T08:08:04;26;25;
36453;PMS5003;22478;51.740;-1.314;2023-05-07T08:10:31;32;31;
36453;PMS5003;22478;51.740;-1.314;2023-05-07T08:12:58;25;23;
36453;PMS5003;22478;51.740;-1.314;2023-05-07T08:15:26;38;38;
36453;PMS5003;22478;51.740;-1.314;2023-05-07T08:17:53;31;30;
36453;PMS5003;22478;51.740;-1.314;2023-05-07T08:20:20;32;31;
36453;PMS5003;22478;51.740;-1.314;2023-05-07T08:22:47;34;34;
36453;PMS5003;22478;51.740;-1.314;2023-05-07T08:25:14;35;35;
36453;PMS5003;22478;51.740;-1.314;2023-05-07T08:27:41;37;34;
36453;PMS5003;22478;51.740;-1.314;2023-05-07T08:30:09;39;38;
36453;PMS5003;22478;51.740;-1.314;2023-05-07T08:32:37;36;35;
36453;PMS5003;22478;51.740;-1.314;2023-05-07T08:35:04;25;22;
36453;PMS5003;22478;51.740;-1.314;2023-05-07T08:37:32;25;21;
36453;PMS5003;22478;51.740;-1.314;2023-05-07T08:39:59;20;18;
36453;PMS5003;22478;51.740;-1.314;2023-05-07T08:42:26;25;22;
36453;PMS5003;22478;51.740;-1.314;2023-05-07T08:44:56;21;20;
36453;PMS5003;22478;51.740;-1.314;2023-05-07T08:47:30;19;16;
36453;PMS5003;22478;51.740;-1.314;2023-05-07T08:50:01;16;16;
36453;PMS5003;22478;51.740;-1.314;2023-05-07T08:52:29;15;13;
36453;PMS5003;22478;51.740;-1.314;2023-05-07T08:54:56;22;20;
36453;PMS5003;22478;51.740;-1.314;2023-05-07T08:57:24;15;15;
36453;PMS5003;22478;51.740;-1.314;2023-05-07T08:59:51;25;25;
36453;PMS5003;22478;51.740;-1.314;2023-05-07T09:02:18;22;22;
36453;PMS5003;22478;51.740;-1.314;2023-05-07T09:04:45;24;23;
36453;PMS5003;22478;51.740;-1.314;2023-05-07T09:07:13;24;23;
36453;PMS5003;22478;51.740;-1.314;2023-05-07T09:09:41;35;33;
36453;PMS5003;22478;51.740;-1.314;2023-05-07T09:12:10;35;35;
36453;PMS5003;22478;51.740;-1.314;2023-05-07T09:14:38;31;29;
36453;PMS5003;22478;51.740;-1.314;2023-05-07T09:17:05;24;24;
36453;PMS5003;22478;51.740;-1.314;2023-05-07T09:19:33;34;34;
36453;PMS5003;22478;51.740;-1.314;2023-05-07T09:22:00;28;27;
36453;PMS5003;22478;51.740;-1.314;2023-05-07T09:24:29;44;43;
36453;PMS5003;22478;51.740;-1.314;2023-05-07T09:26:57;44;42;
36453;PMS5003;22478;51.740;-1.314;2023-05-07T09:29:25;20;19;
36453;PMS5003;22478;51.740;-1.314;2023-05-07T09:31:52;54;54;
36453;PMS5003;22478;51.740;-1.314;2023-05-07T09:34:19;43;41;
36453;PMS5003;22478;51.740;-1.314;2023-05-07T09:36:46;44;44;
36453;PMS5003;22478;51.740;-1.314;2023-05-07T09:39:13;47;47;
36453;PMS5003;22478;51.740;-1.314;2023-05-07T09:41:45;50;50;
36453;PMS5003;22478;51.740;-1.314;2023-05-07T09:44:13;57;57;
36453;PMS5003;22478;51.740;-1.314;2023-05-07T09:46:42;64;63;
36453;PMS5003;22478;51.740;-1.314;2023-05-07T09:49:11;57;57;
36453;PMS5003;22478;51.740;-1.314;2023-05-07T09:51:48;55;53;
36453;PMS5003;22478;51.740;-1.314;2023-05-07T09:54:17;61;58;
36453;PMS5003;22478;51.740;-1.314;2023-05-07T09:56:45;52;52;
36453;PMS5003;22478;51.740;-1.314;2023-05-07T09:59:14;46;46;
36453;PMS5003;22478;51.740;-1.314;2023-05-07T10:01:43;46;44;
36453;PMS5003;22478;51.740;-1.314;2023-05-07T10:04:11;50;48;
36453;PMS5003;22478;51.740;-1.314;2023-05-07T10:06:40;40;40;
36453;PMS5003;22478;51.740;-1.314;2023-05-07T10:09:08;42;42;
36453;PMS5003;22478;51.740;-1.314;2023-05-07T10:11:36;34;32;
36453;PMS5003;22478;51.740;-1.314;2023-05-07T10:14:04;57;56;
36453;PMS5003;22478;51.740;-1.314;2023-05-07T10:16:32;52;52;
36453;PMS5003;22478;51.740;-1.314;2023-05-07T10:19:02;28;26;
36453;PMS5003;22478;51.740;-1.314;2023-05-07T10:21:30;12;12;
36453;PMS5003;22478;51.740;-1.314;2023-05-07T10:23:59;21;20;
36453;PMS5003;22478;51.740;-1.314;2023-05-07T10:26:30;42;41;
36453;PMS5003;22478;51.740;-1.314;2023-05-07T10:29:00;25;24;
36453;PMS5003;22478;51.740;-1.314;2023-05-07T10:31:36;16;16;
36453;PMS5003;22478;51.740;-1.314;2023-05-07T10:34:15;23;21;
36453;PMS5003;22478;51.740;-1.314;2023-05-07T10:36:47;27;27;
36453;PMS5003;22478;51.740;-1.314;2023-05-07T10:39:16;19;18;
36453;PMS5003;22478;51.740;-1.314;2023-05-07T10:41:43;10;10;
36453;PMS5003;22478;51.740;-1.314;2023-05-07T10:44:10;7;7;
36453;PMS5003;22478;51.740;-1.314;2023-05-07T10:46:37;20;19;
36453;PMS5003;22478;51.740;-1.314;2023-05-07T10:49:06;26;26;
36453;PMS5003;22478;51.740;-1.314;2023-05-07T10:51:35;7;7;
36453;PMS5003;22478;51.740;-1.314;2023-05-07T10:54:19;10;9;
36453;PMS5003;22478;51.740;-1.314;2023-05-07T10:56:48;9;9;
36453;PMS5003;22478;51.740;-1.314;2023-05-07T10:59:47;3;1;
36453;PMS5003;22478;51.740;-1.314;2023-05-07T11:02:15;3;3;
36453;PMS5003;22478;51.740;-1.314;2023-05-07T11:04:42;3;3;
36453;PMS5003;22478;51.740;-1.314;2023-05-07T11:07:26;4;3;
36453;PMS5003;22478;51.740;-1.314;2023-05-07T11:09:55;3;3;
36453;PMS5003;22478;51.740;-1.314;2023-05-07T11:12:46;3;3;
36453;PMS5003;22478;51.740;-1.314;2023-05-07T11:15:16;6;4;
36453;PMS5003;22478;51.740;-1.314;2023-05-07T11:18:03;4;4;
36453;PMS5003;22478;51.740;-1.314;2023-05-07T11:21:03;6;3;
36453;PMS5003;22478;51.740;-1.314;2023-05-07T11:24:03;5;5;
36453;PMS5003;22478;51.740;-1.314;2023-05-07T11:26:40;24;24;
36453;PMS5003;22478;51.740;-1.314;2023-05-07T11:29:10;16;16;
36453;PMS5003;22478;51.740;-1.314;2023-05-07T11:31:38;6;6;
36453;PMS5003;22478;51.740;-1.314;2023-05-07T11:34:06;6;6;
36453;PMS5003;22478;51.740;-1.314;2023-05-07T11:36:34;10;9;
36453;PMS5003;22478;51.740;-1.314;2023-05-07T11:39:02;4;4;
36453;PMS5003;22478;51.740;-1.314;2023-05-07T11:41:33;4;4;
36453;PMS5003;22478;51.740;-1.314;2023-05-07T11:44:01;5;2;
36453;PMS5003;22478;51.740;-1.314;2023-05-07T11:46:29;4;4;
36453;PMS5003;22478;51.740;-1.314;2023-05-07T11:48:56;4;2;
36453;PMS5003;22478;51.740;-1.314;2023-05-07T11:51:24;4;4;
36453;PMS5003;22478;51.740;-1.314;2023-05-07T11:53:52;8;8;
36453;PMS5003;22478;51.740;-1.314;2023-05-07T11:56:20;11;11;
36453;PMS5003;22478;51.740;-1.314;2023-05-07T11:58:48;4;4;
36453;PMS5003;22478;51.740;-1.314;2023-05-07T12:01:15;4;4;
36453;PMS5003;22478;51.740;-1.314;2023-05-07T12:03:43;3;3;
36453;PMS5003;22478;51.740;-1.314;2023-05-07T12:06:12;2;2;
36453;PMS5003;22478;51.740;-1.314;2023-05-07T12:08:40;5;4;
36453;PMS5003;22478;51.740;-1.314;2023-05-07T12:11:09;1;1;
36453;PMS5003;22478;51.740;-1.314;2023-05-07T12:13:38;7;5;
36453;PMS5003;22478;51.740;-1.314;2023-05-07T12:16:06;7;7;
36453;PMS5003;22478;51.740;-1.314;2023-05-07T12:18:34;8;5;
36453;PMS5003;22478;51.740;-1.314;2023-05-07T12:21:04;4;4;
36453;PMS5003;22478;51.740;-1.314;2023-05-07T12:23:31;2;2;
36453;PMS5003;22478;51.740;-1.314;2023-05-07T12:26:00;4;4;
36453;PMS5003;22478;51.740;-1.314;2023-05-07T12:28:27;8;8;
36453;PMS5003;22478;51.740;-1.314;2023-05-07T12:30:55;21;21;
36453;PMS5003;22478;51.740;-1.314;2023-05-07T12:33:23;8;8;
36453;PMS5003;22478;51.740;-1.314;2023-05-07T12:35:53;4;4;
36453;PMS5003;22478;51.740;-1.314;2023-05-07T12:38:22;2;2;
36453;PMS5003;22478;51.740;-1.314;2023-05-07T12:40:49;6;5;
36453;PMS5003;22478;51.740;-1.314;2023-05-07T12:43:21;3;2;
36453;PMS5003;22478;51.740;-1.314;2023-05-07T12:45:53;4;4;
36453;PMS5003;22478;51.740;-1.314;2023-05-07T12:48:22;5;3;
36453;PMS5003;22478;51.740;-1.314;2023-05-07T12:50:50;9;6;
36453;PMS5003;22478;51.740;-1.314;2023-05-07T12:53:19;6;5;
36453;PMS5003;22478;51.740;-1.314;2023-05-07T12:55:49;7;5;
36453;PMS5003;22478;51.740;-1.314;2023-05-07T12:58:18;9;9;
36453;PMS5003;22478;51.740;-1.314;2023-05-07T13:00:47;5;5;
36453;PMS5003;22478;51.740;-1.314;2023-05-07T13:03:20;4;4;
36453;PMS5003;22478;51.740;-1.314;2023-05-07T13:05:49;5;3;
36453;PMS5003;22478;51.740;-1.314;2023-05-07T13:08:25;3;3;
36453;PMS5003;22478;51.740;-1.314;2023-05-07T13:10:53;6;4;
36453;PMS5003;22478;51.740;-1.314;2023-05-07T13:13:21;2;2;
36453;PMS5003;22478;51.740;-1.314;2023-05-07T13:15:48;4;4;
36453;PMS5003;22478;51.740;-1.314;2023-05-07T13:18:16;4;4;
36453;PMS5003;22478;51.740;-1.314;2023-05-07T13:20:44;1;1;
36453;PMS5003;22478;51.740;-1.314;2023-05-07T13:23:10;4;4;
36453;PMS5003;22478;51.740;-1.314;2023-05-07T13:25:38;3;3;
36453;PMS5003;22478;51.740;-1.314;2023-05-07T13:28:06;4;4;
36453;PMS5003;22478;51.740;-1.314;2023-05-07T13:30:33;2;2;
36453;PMS5003;22478;51.740;-1.314;2023-05-07T13:33:01;5;4;
36453;PMS5003;22478;51.740;-1.314;2023-05-07T13:35:28;2;2;
36453;PMS5003;22478;51.740;-1.314;2023-05-07T13:37:56;6;6;
36453;PMS5003;22478;51.740;-1.314;2023-05-07T13:40:24;7;7;
36453;PMS5003;22478;51.740;-1.314;2023-05-07T13:42:51;5;5;
36453;PMS5003;22478;51.740;-1.314;2023-05-07T13:45:19;5;5;
36453;PMS5003;22478;51.740;-1.314;2023-05-07T13:47:47;5;5;
36453;PMS5003;22478;51.740;-1.314;2023-05-07T13:50:13;4;4;
36453;PMS5003;22478;51.740;-1.314;2023-05-07T13:52:41;7;5;
36453;PMS5003;22478;51.740;-1.314;2023-05-07T13:55:08;7;7;
36453;PMS5003;22478;51.740;-1.314;2023-05-07T13:57:36;9;8;
36453;PMS5003;22478;51.740;-1.314;2023-05-07T14:00:04;5;5;
36453;PMS5003;22478;51.740;-1.314;2023-05-07T14:02:32;6;6;
36453;PMS5003;22478;51.740;-1.314;2023-05-07T14:04:59;5;5;
36453;PMS5003;22478;51.740;-1.314;2023-05-07T14:07:25;5;4;
36453;PMS5003;22478;51.740;-1.314;2023-05-07T14:09:52;6;6;
36453;PMS5003;22478;51.740;-1.314;2023-05-07T14:12:19;6;5;
36453;PMS5003;22478;51.740;-1.314;2023-05-07T14:14:46;5;5;
36453;PMS5003;22478;51.740;-1.314;2023-05-07T14:17:13;8;8;
36453;PMS5003;22478;51.740;-1.314;2023-05-07T14:19:40;7;7;
36453;PMS5003;22478;51.740;-1.314;2023-05-07T14:22:07;9;7;
36453;PMS5003;22478;51.740;-1.314;2023-05-07T14:24:34;7;7;
36453;PMS5003;22478;51.740;-1.314;2023-05-07T14:27:02;4;4;
36453;PMS5003;22478;51.740;-1.314;2023-05-07T14:29:29;9;6;
36453;PMS5003;22478;51.740;-1.314;2023-05-07T14:31:56;5;5;
36453;PMS5003;22478;51.740;-1.314;2023-05-07T14:34:23;8;6;
36453;PMS5003;22478;51.740;-1.314;2023-05-07T14:36:51;7;7;
36453;PMS5003;22478;51.740;-1.314;2023-05-07T14:39:18;7;4;
36453;PMS5003;22478;51.740;-1.314;2023-05-07T14:41:45;10;7;
36453;PMS5003;22478;51.740;-1.314;2023-05-07T14:44:12;8;6;
36453;PMS5003;22478;51.740;-1.314;2023-05-07T14:46:39;10;8;
36453;PMS5003;22478;51.740;-1.314;2023-05-07T14:49:06;8;6;
36453;PMS5003;22478;51.740;-1.314;2023-05-07T14:51:33;6;6;
36453;PMS5003;22478;51.740;-1.314;2023-05-07T14:54:00;10;10;
36453;PMS5003;22478;51.740;-1.314;2023-05-07T14:56:27;13;13;
36453;PMS5003;22478;51.740;-1.314;2023-05-07T14:58:55;15;15;
36453;PMS5003;22478;51.740;-1.314;2023-05-07T15:01:24;12;12;
36453;PMS5003;22478;51.740;-1.314;2023-05-07T15:03:52;12;12;
36453;PMS5003;22478;51.740;-1.314;2023-05-07T15:06:19;11;11;
36453;PMS5003;22478;51.740;-1.314;2023-05-07T15:08:47;25;25;
36453;PMS5003;22478;51.740;-1.314;2023-05-07T15:11:14;19;19;
36453;PMS5003;22478;51.740;-1.314;2023-05-07T15:13:42;24;23;
36453;PMS5003;22478;51.740;-1.314;2023-05-07T15:16:09;25;25;
36453;PMS5003;22478;51.740;-1.314;2023-05-07T15:18:36;32;31;
36453;PMS5003;22478;51.740;-1.314;2023-05-07T15:21:04;34;34;
36453;PMS5003;22478;51.740;-1.314;2023-05-07T15:23:31;38;38;
36453;PMS5003;22478;51.740;-1.314;2023-05-07T15:25:58;37;37;
36453;PMS5003;22478;51.740;-1.314;2023-05-07T15:28:25;36;35;
36453;PMS5003;22478;51.740;-1.314;2023-05-07T15:30:52;31;31;
36453;PMS5003;22478;51.740;-1.314;2023-05-07T15:33:19;31;31;
36453;PMS5003;22478;51.740;-1.314;2023-05-07T15:35:46;28;28;
36453;PMS5003;22478;51.740;-1.314;2023-05-07T15:38:14;29;29;
36453;PMS5003;22478;51.740;-1.314;2023-05-07T15:40:41;32;32;
36453;PMS5003;22478;51.740;-1.314;2023-05-07T15:43:08;33;33;
36453;PMS5003;22478;51.740;-1.314;2023-05-07T15:45:38;29;28;
36453;PMS5003;22478;51.740;-1.314;2023-05-07T15:48:07;26;26;
36453;PMS5003;22478;51.740;-1.314;2023-05-07T15:50:34;23;22;
36453;PMS5003;22478;51.740;-1.314;2023-05-07T15:53:02;22;22;
36453;PMS5003;22478;51.740;-1.314;2023-05-07T15:55:30;27;27;
36453;PMS5003;22478;51.740;-1.314;2023-05-07T15:57:58;19;18;
36453;PMS5003;22478;51.740;-1.314;2023-05-07T16:00:26;22;22;
36453;PMS5003;22478;51.740;-1.314;2023-05-07T16:02:53;24;24;
36453;PMS5003;22478;51.740;-1.314;2023-05-07T16:05:20;17;16;
36453;PMS5003;22478;51.740;-1.314;2023-05-07T16:07:48;25;21;
36453;PMS5003;22478;51.740;-1.314;2023-05-07T16:10:15;19;19;
36453;PMS5003;22478;51.740;-1.314;2023-05-07T16:12:43;15;15;
36453;PMS5003;22478;51.740;-1.314;2023-05-07T16:15:10;12;11;